createdAt,value
2023-05-16T00:02:41.358Z,12.39
2023-05-16T00:07:34.655Z,12.41
2023-05-16T00:12:27.233Z,12.44
2023-05-16T00:17:20.354Z,12.50
2023-05-16T00:22:12.241Z,12.46
2023-05-16T00:27:04.095Z,12.55
2023-05-16T00:31:55.974Z,12.46
2023-05-16T00:36:47.761Z,12.42
2023-05-16T00:41:39.873Z,12.41
2023-05-16T00:46:31.697Z,12.32
2023-05-16T00:51:23.647Z,12.21
2023-05-16T00:56:17.533Z,12.12
2023-05-16T01:01:09.438Z,12.02
2023-05-16T01:06:01.230Z,12.03
2023-05-16T01:11:12.114Z,11.98
2023-05-16T01:16:20.847Z,11.93
2023-05-16T01:21:53.946Z,12.02
2023-05-16T01:26:46.726Z,12.23
2023-05-16T01:31:38.463Z,12.23
2023-05-16T01:36:39.723Z,12.15
2023-05-16T01:42:07.850Z,12.04
2023-05-16T01:47:06.759Z,12.08
2023-05-16T01:52:22.854Z,11.94
2023-05-16T01:57:16.140Z,11.92
2023-05-16T02:02:07.885Z,11.87
2023-05-16T02:07:00.948Z,11.91
2023-05-16T02:11:52.847Z,11.85
2023-05-16T02:16:44.592Z,11.86
2023-05-16T02:21:36.365Z,12.01
2023-05-16T02:26:28.237Z,12.13
2023-05-16T02:31:34.620Z,12.06
2023-05-16T02:36:26.585Z,11.94
2023-05-16T02:41:18.796Z,11.87
2023-05-16T02:46:28.846Z,11.81
2023-05-16T02:51:23.763Z,11.72
2023-05-16T02:56:15.721Z,11.55
2023-05-16T03:01:07.998Z,11.43
2023-05-16T03:05:59.897Z,11.27
2023-05-16T03:10:51.779Z,11.22
2023-05-16T03:15:43.484Z,11.24
2023-05-16T03:20:35.210Z,11.27
2023-05-16T03:25:27.162Z,11.33
2023-05-16T03:30:20.179Z,11.59
2023-05-16T03:35:12.008Z,11.66
2023-05-16T03:40:07.201Z,11.52
2023-05-16T03:44:58.941Z,11.53
2023-05-16T03:49:50.741Z,11.46
2023-05-16T03:54:42.415Z,11.34
2023-05-16T03:59:34.509Z,11.35
2023-05-16T04:04:26.231Z,11.27
2023-05-16T04:09:18.616Z,11.24
2023-05-16T04:14:10.484Z,11.30
2023-05-16T04:19:02.937Z,11.45
2023-05-16T04:23:54.644Z,11.47
2023-05-16T04:28:46.365Z,11.44
2023-05-16T04:33:38.351Z,11.47
2023-05-16T04:38:30.032Z,11.55
2023-05-16T04:43:21.712Z,11.48
2023-05-16T04:48:13.556Z,11.76
2023-05-16T04:53:05.284Z,11.82
2023-05-16T04:57:57.080Z,12.09
2023-05-16T05:02:48.823Z,12.34
2023-05-16T05:07:40.816Z,12.29
2023-05-16T05:12:32.543Z,12.33
2023-05-16T05:17:24.442Z,12.45
2023-05-16T05:22:16.322Z,12.45
2023-05-16T05:27:08.106Z,12.55
2023-05-16T05:31:59.837Z,12.48
2023-05-16T05:36:51.538Z,12.59
2023-05-16T05:41:43.207Z,12.70
2023-05-16T05:46:35.716Z,12.87
2023-05-16T05:51:27.952Z,13.01
2023-05-16T05:56:21.189Z,13.09
2023-05-16T06:01:12.875Z,12.92
2023-05-16T06:06:05.130Z,12.90
2023-05-16T06:10:56.831Z,13.13
2023-05-16T06:15:54.898Z,13.09
2023-05-16T06:20:46.918Z,13.42
2023-05-16T06:25:38.732Z,13.63
2023-05-16T06:30:30.724Z,13.83
2023-05-16T06:35:23.031Z,14.12
2023-05-16T06:40:14.711Z,14.89
2023-05-16T06:45:07.614Z,14.91
2023-05-16T06:49:59.362Z,15.02
2023-05-16T06:54:52.048Z,14.62
2023-05-16T06:59:44.326Z,14.68
2023-05-16T07:04:37.816Z,14.94
2023-05-16T07:09:29.530Z,15.38
2023-05-16T07:14:21.250Z,15.61
2023-05-16T07:19:13.042Z,15.73
2023-05-16T07:24:05.684Z,15.33
2023-05-16T07:28:58.033Z,15.60
2023-05-16T07:33:50.378Z,15.86
2023-05-16T07:38:42.914Z,15.62
2023-05-16T07:43:35.421Z,15.48
2023-05-16T07:48:27.287Z,15.71
2023-05-16T07:53:19.028Z,15.92
2023-05-16T07:58:10.834Z,15.68
2023-05-16T08:03:03.604Z,16.01
2023-05-16T08:07:55.407Z,15.79
2023-05-16T08:12:48.264Z,15.75
2023-05-16T08:17:40.230Z,15.75
2023-05-16T08:22:33.427Z,15.47
2023-05-16T08:27:25.410Z,15.51
2023-05-16T08:32:17.137Z,15.88
2023-05-16T08:37:08.883Z,15.63
2023-05-16T08:42:00.792Z,15.60
2023-05-16T08:46:54.220Z,15.49
2023-05-16T08:51:52.711Z,15.45
2023-05-16T08:56:45.836Z,15.36
2023-05-16T09:01:37.968Z,15.41
2023-05-16T09:06:30.226Z,15.75
2023-05-16T09:11:22.432Z,15.55
2023-05-16T09:16:16.698Z,15.34
2023-05-16T09:21:10.361Z,14.96
2023-05-16T09:26:05.230Z,15.02
2023-05-16T09:30:59.416Z,14.96
2023-05-16T09:35:59.944Z,14.97
2023-05-16T12:11:40.213Z,13.58
2023-05-16T17:11:32.662Z,12.08
2023-05-16T17:53:01.160Z,11.42
2023-05-16T17:57:56.826Z,11.40
2023-05-16T18:18:28.658Z,11.24
2023-05-16T19:45:14.945Z,11.18
2023-05-16T20:00:23.184Z,11.23
2023-05-16T20:20:39.124Z,11.23
2023-05-16T20:51:10.154Z,11.31
2023-05-16T21:06:22.002Z,11.31
2023-05-16T21:26:37.076Z,11.29
2023-05-16T21:41:40.535Z,11.21
